Time,TemperatureF,DewpointF,PressureIn,WindDirection,WindDirectionDegrees,WindSpeedMPH,WindSpeedGustMPH,Humidity,HourlyPrecipIn,Conditions,Clouds,dailyrainin,SoftwareType,DateUTC
2013-09-24 00:00:00,75.0,74.0,29.94,SE,129,0.0,3.0,98,0.00,,,0.00,weatherlink.com 1.10,2013-09-24 04:00:00,
2013-09-24 00:15:00,75.0,74.0,29.94,SSE,150,0.0,1.0,98,0.00,,,0.00,weatherlink.com 1.10,2013-09-24 04:15:00,
2013-09-24 00:30:00,75.0,74.0,29.94,SE,141,0.0,0.0,98,0.01,,,0.01,weatherlink.com 1.10,2013-09-24 04:30:00,
2013-09-24 00:45:00,74.9,74.0,29.94,SE,141,0.0,0.0,98,0.01,,,0.01,weatherlink.com 1.10,2013-09-24 04:45:00,
2013-09-24 01:00:00,74.7,74.0,29.94,SE,141,0.0,0.0,98,0.01,,,0.01,weatherlink.com 1.10,2013-09-24 05:00:00,
2013-09-24 01:15:00,74.7,74.0,29.93,SE,141,0.0,0.0,99,0.01,,,0.01,weatherlink.com 1.10,2013-09-24 05:15:00,
2013-09-24 01:30:00,74.6,74.0,29.93,SE,145,0.0,0.0,99,0.00,,,0.01,weatherlink.com 1.10,2013-09-24 05:30:00,
2013-09-24 01:45:00,74.6,74.0,29.93,SW,224,0.0,0.0,99,0.00,,,0.01,weatherlink.com 1.10,2013-09-24 05:45:00,
2013-09-24 02:00:00,74.5,74.0,29.93,SW,224,0.0,0.0,99,0.00,,,0.01,weatherlink.com 1.10,2013-09-24 06:00:00,
2013-09-24 02:15:00,74.6,74.0,29.92,SW,224,0.0,0.0,99,0.00,,,0.01,weatherlink.com 1.10,2013-09-24 06:15:00,
2013-09-24 02:30:00,74.7,74.0,29.91,SSE,148,0.0,0.0,99,0.00,,,0.01,weatherlink.com 1.10,2013-09-24 06:30:00,
2013-09-24 02:45:00,74.9,75.0,29.91,East,89,2.0,3.0,99,0.00,,,0.01,weatherlink.com 1.10,2013-09-24 06:45:00,
2013-09-24 03:00:00,74.9,75.0,29.92,SSE,150,0.0,0.0,99,0.00,,,0.01,weatherlink.com 1.10,2013-09-24 07:00:00,
2013-09-24 03:15:00,75.0,75.0,29.91,SW,228,0.0,0.0,99,0.00,,,0.01,weatherlink.com 1.10,2013-09-24 07:15:00,
2013-09-24 03:31:00,75.1,75.0,29.91,ESE,123,0.0,2.0,99,0.00,,,0.01,weatherlink.com 1.10,2013-09-24 07:31:00,
2013-09-24 03:45:00,75.0,75.0,29.91,SE,135,0.0,0.0,99,0.00,,,0.01,weatherlink.com 1.10,2013-09-24 07:45:00,
2013-09-24 04:00:00,75.0,75.0,29.91,SE,146,0.0,0.0,99,0.00,,,0.01,weatherlink.com 1.10,2013-09-24 08:00:00,
2013-09-24 04:15:00,75.0,75.0,29.90,ESE,122,0.0,0.0,99,0.00,,,0.01,weatherlink.com 1.10,2013-09-24 08:15:00,
2013-09-24 04:30:00,74.9,75.0,29.90,ESE,123,0.0,0.0,99,0.00,,,0.01,weatherlink.com 1.10,2013-09-24 08:30:00,
2013-09-24 04:45:00,74.9,75.0,29.90,ESE,123,0.0,0.0,99,0.00,,,0.01,weatherlink.com 1.10,2013-09-24 08:45:00,
2013-09-24 05:00:00,74.9,75.0,29.90,SSE,147,0.0,0.0,99,0.00,,,0.01,weatherlink.com 1.10,2013-09-24 09:00:00,
2013-09-24 05:15:00,74.8,75.0,29.90,SE,145,0.0,0.0,99,0.00,,,0.01,weatherlink.com 1.10,2013-09-24 09:15:00,
2013-09-24 05:30:00,74.8,75.0,29.90,ESE,120,0.0,0.0,99,0.00,,,0.01,weatherlink.com 1.10,2013-09-24 09:30:00,
2013-09-24 05:45:00,74.7,74.0,29.90,ESE,117,0.0,0.0,99,0.00,,,0.01,weatherlink.com 1.10,2013-09-24 09:45:00,
2013-09-24 06:00:00,74.5,74.0,29.90,ESE,117,0.0,0.0,99,0.00,,,0.01,weatherlink.com 1.10,2013-09-24 10:00:00,
2013-09-24 06:15:00,74.4,74.0,29.90,ESE,117,0.0,0.0,99,0.00,,,0.01,weatherlink.com 1.10,2013-09-24 10:15:00,
2013-09-24 06:30:00,74.4,74.0,29.90,ESE,117,0.0,0.0,99,0.00,,,0.01,weatherlink.com 1.10,2013-09-24 10:30:00,
2013-09-24 06:45:00,74.4,74.0,29.90,ESE,117,0.0,0.0,99,0.00,,,0.01,weatherlink.com 1.10,2013-09-24 10:45:00,
2013-09-24 07:00:00,74.4,74.0,29.91,ESE,117,0.0,0.0,99,0.00,,,0.01,weatherlink.com 1.10,2013-09-24 11:00:00,
2013-09-24 07:15:00,74.3,74.0,29.91,ESE,117,0.0,0.0,99,0.00,,,0.01,weatherlink.com 1.10,2013-09-24 11:15:00,
2013-09-24 07:30:00,74.3,74.0,29.91,ESE,117,0.0,0.0,99,0.00,,,0.01,weatherlink.com 1.10,2013-09-24 11:30:00,
2013-09-24 07:45:00,74.5,74.0,29.92,ESE,117,0.0,0.0,99,0.00,,,0.01,weatherlink.com 1.10,2013-09-24 11:45:00,
2013-09-24 08:00:00,74.7,74.0,29.92,ESE,117,0.0,0.0,99,0.00,,,0.01,weatherlink.com 1.10,2013-09-24 12:00:00,
2013-09-24 08:15:00,74.8,75.0,29.93,ESE,117,0.0,0.0,99,0.00,,,0.01,weatherlink.com 1.10,2013-09-24 12:15:00,
2013-09-24 08:31:00,75.0,75.0,29.94,ESE,117,0.0,0.0,99,0.00,,,0.01,weatherlink.com 1.10,2013-09-24 12:31:00,
2013-09-24 08:45:00,75.3,75.0,29.94,ESE,120,0.0,0.0,99,0.01,,,0.02,weatherlink.com 1.10,2013-09-24 12:45:00,
2013-09-24 09:00:00,75.6,75.0,29.94,SE,127,0.0,0.0,99,0.01,,,0.02,weatherlink.com 1.10,2013-09-24 13:00:00,
2013-09-24 09:15:00,75.8,76.0,29.94,ESE,117,0.0,2.0,99,0.01,,,0.02,weatherlink.com 1.10,2013-09-24 13:15:00,
2013-09-24 09:31:00,76.0,76.0,29.94,ESE,113,1.0,3.0,99,0.01,,,0.02,weatherlink.com 1.10,2013-09-24 13:31:00,
2013-09-24 09:46:00,76.3,76.0,29.94,WSW,252,0.0,2.0,99,0.00,,,0.02,weatherlink.com 1.10,2013-09-24 13:46:00,
2013-09-24 10:01:00,76.6,76.0,29.93,South,187,0.0,2.0,99,0.00,,,0.02,weatherlink.com 1.10,2013-09-24 14:01:00,
2013-09-24 10:16:00,76.8,77.0,29.93,ESE,123,0.0,3.0,99,0.00,,,0.02,weatherlink.com 1.10,2013-09-24 14:16:00,
2013-09-24 10:31:00,77.4,77.0,29.93,ESE,112,1.0,4.0,99,0.00,,,0.02,weatherlink.com 1.10,2013-09-24 14:31:00,
2013-09-24 10:46:00,78.0,77.0,29.92,ESE,113,3.0,6.0,98,0.00,,,0.02,weatherlink.com 1.10,2013-09-24 14:46:00,
2013-09-24 11:01:00,78.6,78.0,29.92,WSW,252,0.0,4.0,97,0.00,,,0.02,weatherlink.com 1.10,2013-09-24 15:01:00,
2013-09-24 11:16:00,79.0,78.0,29.92,SSE,148,2.0,5.0,97,0.00,,,0.02,weatherlink.com 1.10,2013-09-24 15:16:00,
2013-09-24 11:31:00,78.8,77.0,29.92,SE,125,1.0,7.0,94,0.00,,,0.02,weatherlink.com 1.10,2013-09-24 15:31:00,
2013-09-24 11:46:00,79.7,78.0,29.91,SSE,165,1.0,9.0,94,0.00,,,0.02,weatherlink.com 1.10,2013-09-24 15:46:00,
2013-09-24 12:01:00,80.4,78.0,29.91,SW,214,4.0,6.0,93,0.00,,,0.02,weatherlink.com 1.10,2013-09-24 16:01:00,
2013-09-24 12:16:00,81.4,79.0,29.90,WSW,242,4.0,7.0,91,0.00,,,0.02,weatherlink.com 1.10,2013-09-24 16:16:00,
2013-09-24 12:31:00,82.7,79.0,29.90,SSE,148,3.0,7.0,89,0.00,,,0.02,weatherlink.com 1.10,2013-09-24 16:31:00,
2013-09-24 12:46:00,83.2,80.0,29.89,SE,135,0.0,6.0,89,0.00,,,0.02,weatherlink.com 1.10,2013-09-24 16:46:00,
2013-09-24 13:01:00,83.2,79.0,29.89,ESE,104,1.0,6.0,86,0.00,,,0.02,weatherlink.com 1.10,2013-09-24 17:01:00,
2013-09-24 13:16:00,84.5,79.0,29.89,West,262,0.0,5.0,84,0.00,,,0.02,weatherlink.com 1.10,2013-09-24 17:16:00,
2013-09-24 13:31:00,85.1,79.0,29.88,NW,319,0.0,5.0,81,0.00,,,0.02,weatherlink.com 1.10,2013-09-24 17:31:00,
2013-09-24 13:46:00,85.1,78.0,29.88,NW,312,4.0,4.0,78,0.00,,,0.02,weatherlink.com 1.10,2013-09-24 17:46:00,
2013-09-24 14:01:00,84.5,77.0,29.87,WSW,251,2.0,4.0,79,0.00,,,0.02,weatherlink.com 1.10,2013-09-24 18:01:00,
2013-09-24 14:16:00,85.3,77.0,29.86,WSW,240,6.0,6.0,77,0.00,,,0.02,weatherlink.com 1.10,2013-09-24 18:16:00,
2013-09-24 14:31:00,84.4,77.0,29.85,WSW,243,1.0,4.0,79,0.00,,,0.02,weatherlink.com 1.10,2013-09-24 18:31:00,
2013-09-24 14:46:00,83.8,77.0,29.86,NW,305,1.0,6.0,80,0.00,,,0.02,weatherlink.com 1.10,2013-09-24 18:46:00,
2013-09-24 15:01:00,79.6,75.0,29.87,SE,128,0.0,7.0,85,0.09,,,0.11,weatherlink.com 1.10,2013-09-24 19:01:00,
2013-09-24 15:16:00,76.8,74.0,29.87,SE,131,2.0,6.0,91,0.09,,,0.11,weatherlink.com 1.10,2013-09-24 19:16:00,
2013-09-24 15:31:00,77.9,75.0,29.86,SE,138,1.0,3.0,91,0.09,,,0.11,weatherlink.com 1.10,2013-09-24 19:31:00,
2013-09-24 15:46:00,79.6,77.0,29.85,ESE,117,1.0,2.0,90,0.09,,,0.11,weatherlink.com 1.10,2013-09-24 19:46:00,
2013-09-24 16:01:00,81.5,78.0,29.85,WSW,242,0.0,3.0,88,0.00,,,0.11,weatherlink.com 1.10,2013-09-24 20:01:00,
2013-09-24 16:16:00,82.1,78.0,29.84,West,277,2.0,7.0,87,0.00,,,0.11,weatherlink.com 1.10,2013-09-24 20:16:00,
2013-09-24 16:32:00,82.2,78.0,29.84,WSW,253,2.0,7.0,87,0.00,,,0.11,weatherlink.com 1.10,2013-09-24 20:32:00,
2013-09-24 16:47:00,82.1,78.0,29.84,West,259,2.0,4.0,87,0.00,,,0.11,weatherlink.com 1.10,2013-09-24 20:47:00,
2013-09-24 17:02:00,81.7,77.0,29.84,SW,231,0.0,6.0,86,0.00,,,0.11,weatherlink.com 1.10,2013-09-24 21:02:00,
2013-09-24 17:17:00,81.9,77.0,29.84,West,275,0.0,2.0,86,0.00,,,0.11,weatherlink.com 1.10,2013-09-24 21:17:00,
2013-09-24 17:32:00,82.5,77.0,29.84,West,262,1.0,4.0,84,0.00,,,0.11,weatherlink.com 1.10,2013-09-24 21:32:00,
2013-09-24 17:47:00,82.4,76.0,29.84,WNW,299,2.0,15.0,80,0.00,,,0.11,weatherlink.com 1.10,2013-09-24 21:47:00,
2013-09-24 18:02:00,81.4,75.0,29.84,WSW,250,3.0,6.0,82,0.00,,,0.11,weatherlink.com 1.10,2013-09-24 22:02:00,
2013-09-24 18:17:00,80.4,75.0,29.85,SW,232,1.0,5.0,84,0.00,,,0.11,weatherlink.com 1.10,2013-09-24 22:17:00,
2013-09-24 18:32:00,79.6,75.0,29.84,South,181,0.0,4.0,85,0.00,,,0.11,weatherlink.com 1.10,2013-09-24 22:32:00,
2013-09-24 18:47:00,78.9,74.0,29.84,SW,223,1.0,3.0,86,0.00,,,0.11,weatherlink.com 1.10,2013-09-24 22:47:00,
2013-09-24 19:02:00,78.2,74.0,29.84,South,176,0.0,1.0,88,0.00,,,0.11,weatherlink.com 1.10,2013-09-24 23:02:00,
2013-09-24 19:17:00,77.5,74.0,29.84,WSW,254,0.0,3.0,88,0.00,,,0.11,weatherlink.com 1.10,2013-09-24 23:17:00,
2013-09-24 19:32:00,77.0,74.0,29.85,SW,219,1.0,3.0,89,0.00,,,0.11,weatherlink.com 1.10,2013-09-24 23:32:00,
2013-09-24 19:47:00,76.5,74.0,29.85,West,274,0.0,2.0,90,0.00,,,0.11,weatherlink.com 1.10,2013-09-24 23:47:00,
2013-09-24 20:02:00,76.2,74.0,29.86,WSW,253,2.0,5.0,91,0.00,,,0.11,weatherlink.com 1.10,2013-09-25 00:02:00,
2013-09-24 20:17:00,75.7,73.0,29.86,SW,231,2.0,4.0,92,0.00,,,0.11,weatherlink.com 1.10,2013-09-25 00:17:00,
2013-09-24 20:32:00,75.3,73.0,29.86,WSW,256,2.0,5.0,92,0.00,,,0.11,weatherlink.com 1.10,2013-09-25 00:32:00,
2013-09-24 20:48:00,75.1,73.0,29.86,West,273,3.0,4.0,93,0.00,,,0.11,weatherlink.com 1.10,2013-09-25 00:48:00,
2013-09-24 21:02:00,75.0,73.0,29.86,West,274,2.0,4.0,93,0.00,,,0.11,weatherlink.com 1.10,2013-09-25 01:02:00,
2013-09-24 21:17:00,74.9,73.0,29.86,WNW,287,0.0,3.0,93,0.00,,,0.11,weatherlink.com 1.10,2013-09-25 01:17:00,
2013-09-24 21:32:00,75.0,73.0,29.87,NW,314,1.0,4.0,93,0.00,,,0.11,weatherlink.com 1.10,2013-09-25 01:32:00,
2013-09-24 21:47:00,74.9,73.0,29.85,SSE,154,2.0,7.0,93,0.00,,,0.11,weatherlink.com 1.10,2013-09-25 01:47:00,
2013-09-24 22:02:00,74.6,73.0,29.85,SW,219,2.0,8.0,93,0.00,,,0.11,weatherlink.com 1.10,2013-09-25 02:02:00,
2013-09-24 22:17:00,74.4,72.0,29.84,SW,219,6.0,8.0,93,0.00,,,0.11,weatherlink.com 1.10,2013-09-25 02:17:00,
2013-09-24 22:32:00,74.2,72.0,29.83,SW,215,2.0,7.0,93,0.00,,,0.11,weatherlink.com 1.10,2013-09-25 02:32:00,
2013-09-24 22:47:00,74.2,72.0,29.83,North,4,3.0,6.0,93,0.00,,,0.11,weatherlink.com 1.10,2013-09-25 02:47:00,
2013-09-24 23:02:00,74.2,72.0,29.84,SW,215,1.0,6.0,92,0.00,,,0.11,weatherlink.com 1.10,2013-09-25 03:02:00,
2013-09-24 23:17:00,74.0,72.0,29.84,WNW,294,0.0,5.0,92,0.00,,,0.11,weatherlink.com 1.10,2013-09-25 03:17:00,
2013-09-24 23:32:00,73.7,72.0,29.83,WSW,240,0.0,3.0,93,0.00,,,0.11,weatherlink.com 1.10,2013-09-25 03:32:00,
2013-09-24 23:48:00,73.3,72.0,29.83,WNW,288,0.0,2.0,94,0.00,,,0.11,weatherlink.com 1.10,2013-09-25 03:48:00,